Time;durP1;ratioP1;P1;durP2;ratioP2;P2;SDS_P1;SDS_P2;PMS_P1;PMS_P2;Temp;Humidity;BMP_temperature;BMP_pressure;BME280_temperature;BME280_humidity;BME280_pressure;Samples;Min_cycle;Max_cycle;Signal;HPM_P1;HPM_P2
2022/04/04 00:00:17;;;;;;;6.20;5.70;;;7.20;88.30;;;;;;6240315;23;20397;-84
2022/04/04 00:02:51;;;;;;;6.73;6.00;;;7.30;87.90;;;;;;6238711;23;20444;-85
2022/04/04 00:05:18;;;;;;;6.23;5.60;;;7.30;87.70;;;;;;6242452;23;20404;-82
2022/04/04 00:07:45;;;;;;;6.30;5.70;;;7.30;88.10;;;;;;6238915;23;20443;-85
2022/04/04 00:13:27;;;;;;;6.50;5.97;;;7.10;89.00;;;;;;6240230;23;20412;-84
2022/04/04 00:15:54;;;;;;;6.80;6.30;;;7.10;89.80;;;;;;6239455;23;20443;-84
2022/04/04 00:18:21;;;;;;;7.00;6.10;;;7.10;90.20;;;;;;6237924;23;20423;-83
2022/04/04 00:20:53;;;;;;;6.00;5.40;;;7.10;90.10;;;;;;6246611;23;20419;-82
2022/04/04 00:23:20;;;;;;;7.40;5.37;;;7.00;90.20;;;;;;6253113;23;20631;-82
2022/04/04 00:25:48;;;;;;;7.40;6.70;;;7.00;90.40;;;;;;6254920;23;20559;-81
2022/04/04 00:28:15;;;;;;;6.93;6.10;;;6.90;90.60;;;;;;6231167;23;20440;-84
2022/04/04 00:30:45;;;;;;;6.77;6.23;;;6.90;90.70;;;;;;6249823;23;20440;-85
2022/04/04 00:33:15;;;;;;;6.47;5.93;;;6.90;90.90;;;;;;6243562;23;20403;-85
2022/04/04 00:36:00;;;;;;;7.30;6.00;;;6.80;91.10;;;;;;6240767;23;20520;-85
2022/04/04 00:38:30;;;;;;;7.13;6.40;;;6.80;91.20;;;;;;6244477;23;20418;-84
2022/04/04 00:41:21;;;;;;;7.43;6.80;;;6.80;91.30;;;;;;6222694;23;20873;-84
2022/04/04 00:43:53;;;;;;;7.23;6.63;;;6.80;91.30;;;;;;6259724;22;20404;-84
2022/04/04 00:46:20;;;;;;;6.77;6.20;;;6.80;91.40;;;;;;6261762;22;20433;-84
2022/04/04 00:48:48;;;;;;;6.83;6.23;;;6.80;91.40;;;;;;6259818;23;20392;-82
2022/04/04 00:51:15;;;;;;;6.53;6.00;;;6.80;91.30;;;;;;6258235;22;20454;-83
2022/04/04 00:53:44;;;;;;;6.80;6.20;;;6.80;91.30;;;;;;6260939;22;20442;-84
2022/04/04 00:56:38;;;;;;;6.60;6.00;;;6.70;91.40;;;;;;6256832;22;20466;-84
2022/04/04 01:00:16;;;;;;;6.03;5.50;;;6.80;91.50;;;;;;6105463;23;20406;-86
2022/04/04 01:03:25;;;;;;;6.03;5.53;;;6.70;91.40;;;;;;6082140;23;20397;-84
2022/04/04 01:06:55;;;;;;;7.00;6.40;;;6.80;91.50;;;;;;6095414;23;20480;-84
2022/04/04 01:10:14;;;;;;;6.83;6.17;;;6.80;91.00;;;;;;6080439;23;20484;-82
2022/04/04 01:13:28;;;;;;;6.13;5.53;;;6.70;91.40;;;;;;6045905;23;20437;-85
2022/04/04 01:16:34;;;;;;;6.10;5.60;;;6.90;91.30;;;;;;6046940;23;20485;-84
2022/04/04 01:23:13;;;;;;;7.23;6.53;;;6.60;91.30;;;;;;6008227;23;20530;-83
2022/04/04 01:33:48;;;;;;;;;;;;;;;;;;;;;
2022/04/04 01:37:14;;;;;;;7.00;6.50;;;6.70;92.10;;;;;;6065216;23;20403;-83
2022/04/04 01:40:06;;;;;;;6.60;6.00;;;6.70;91.70;;;;;;6179503;23;20424;-85
2022/04/04 01:47:31;;;;;;;7.20;6.50;;;6.40;92.40;;;;;;6087288;23;20496;-84
2022/04/04 01:51:19;;;;;;;7.17;6.57;;;6.50;92.60;;;;;;6086734;23;20492;-83
2022/04/04 01:54:35;;;;;;;;;;;;;;;;;;;;;
2022/04/04 02:01:56;;;;;;;;;;;;;;;;;;;;;
2022/04/04 02:09:38;;;;;;;;;;;;;;;;;;;;;
2022/04/04 02:12:56;;;;;;;;;;;;;;;;;;;;;
2022/04/04 02:16:21;;;;;;;9.30;8.27;;;6.30;93.20;;;;;;6043965;22;20439;-84
2022/04/04 02:22:53;;;;;;;7.73;6.97;;;5.90;93.70;;;;;;6129137;23;20567;-84
2022/04/04 02:26:17;;;;;;;;;;;;;;;;;;;;;
2022/04/04 02:29:15;;;;;;;7.00;6.30;;;6.10;94.10;;;;;;6110611;23;20888;-84
2022/04/04 02:32:31;;;;;;;9.10;7.00;;;6.10;93.80;;;;;;6006066;23;20465;-85
2022/04/04 02:36:02;;;;;;;7.73;7.03;;;6.20;93.60;;;;;;5967379;24;20424;-83
2022/04/04 02:39:10;;;;;;;8.67;7.80;;;6.30;93.30;;;;;;5953637;23;20453;-84
2022/04/04 02:41:57;;;;;;;10.73;8.43;;;6.10;93.50;;;;;;6113393;23;20477;-83
2022/04/04 02:45:30;;;;;;;8.23;7.43;;;6.00;93.70;;;;;;6121662;23;20451;-84
2022/04/04 02:49:31;;;;;;;;;;;;;;;;;;;;;
2022/04/04 03:00:40;;;;;;;8.80;7.30;;;5.70;95.00;;;;;;5870176;24;20442;-82
2022/04/04 03:05:21;;;;;;;9.33;8.37;;;5.60;94.90;;;;;;5863003;24;20817;-84
2022/04/04 03:16:06;;;;;;;11.13;9.70;;;5.50;95.20;;;;;;5947357;24;20388;-84
2022/04/04 03:31:10;;;;;;;;;;;;;;;;;;;;;
2022/04/04 04:02:54;;;;;;;13.60;8.90;;;5.20;95.80;;;;;;6219752;23;20420;-84
2022/04/04 04:10:12;;;;;;;;;;;;;;;;;;;;;
2022/04/04 04:14:03;;;;;;;11.20;8.70;;;5.30;95.60;;;;;;5955973;24;20426;-83
2022/04/04 04:17:38;;;;;;;10.07;8.80;;;5.30;95.10;;;;;;5896957;24;20518;-84
2022/04/04 04:20:59;;;;;;;11.73;8.47;;;5.30;95.10;;;;;;5872330;24;20410;-85
2022/04/04 04:24:09;;;;;;;;;;;;;;;;;;;;;
2022/04/04 04:27:40;;;;;;;11.53;9.20;;;5.20;95.20;;;;;;5945947;24;20500;-82
2022/04/04 04:41:52;;;;;;;10.60;9.10;;;5.30;94.90;;;;;;5939344;24;20393;-83
2022/04/04 04:51:00;;;;;;;10.30;8.07;;;5.40;94.80;;;;;;6223569;23;21569;-83
2022/04/04 04:54:45;;;;;;;12.27;9.53;;;5.40;94.80;;;;;;6197935;23;20689;-82
2022/04/04 04:58:04;;;;;;;9.87;6.90;;;5.40;94.50;;;;;;6124832;23;20457;-85
2022/04/04 05:09:18;;;;;;;11.93;7.67;;;5.30;94.40;;;;;;6066381;23;20472;-84
2022/04/04 05:16:14;;;;;;;9.73;7.20;;;5.30;94.20;;;;;;6078155;23;20393;-84
2022/04/04 05:18:57;;;;;;;8.50;7.17;;;5.40;94.30;;;;;;6083433;23;20850;-84
2022/04/04 05:22:00;;;;;;;10.20;8.10;;;5.40;94.40;;;;;;6086147;23;20428;-84
2022/04/04 05:25:33;;;;;;;9.63;7.00;;;5.50;94.00;;;;;;6084530;23;20429;-83
2022/04/04 05:28:37;;;;;;;10.20;7.80;;;5.50;93.60;;;;;;6114649;23;20414;-83
2022/04/04 05:31:45;;;;;;;9.53;7.67;;;5.50;93.60;;;;;;6161539;23;20443;-83
2022/04/04 05:42:22;;;;;;;10.50;7.17;;;5.50;93.40;;;;;;6231911;23;20428;-83
2022/04/04 05:45:35;;;;;;;12.83;7.50;;;5.60;92.90;;;;;;6009500;23;20415;-82
2022/04/04 05:48:46;;;;;;;7.60;6.27;;;5.70;92.70;;;;;;6062959;23;20400;-83
2022/04/04 05:55:39;;;;;;;9.50;8.57;;;5.80;92.50;;;;;;5946321;23;20439;-83
2022/04/04 05:59:07;;;;;;;11.43;7.00;;;5.80;92.30;;;;;;5985275;24;20425;-85
2022/04/04 06:10:35;;;;;;;11.33;7.10;;;6.60;90.40;;;;;;5048606;28;20452;-84
2022/04/04 06:24:43;;;;;;;7.33;6.53;;;7.30;85.70;;;;;;5054829;28;20484;-84
2022/04/04 06:32:05;;;;;;;10.17;7.50;;;7.10;87.10;;;;;;5044303;28;20480;-84
2022/04/04 06:38:39;;;;;;;7.53;5.93;;;7.00;86.40;;;;;;4999238;28;20494;-85
2022/04/04 06:50:03;;;;;;;7.83;6.30;;;7.10;86.40;;;;;;4959853;28;20524;-85
2022/04/04 06:53:27;;;;;;;10.80;6.20;;;7.30;85.10;;;;;;4962261;28;20490;-84
2022/04/04 06:57:15;;;;;;;5.53;4.47;;;7.80;83.70;;;;;;4990979;28;20518;-84
2022/04/04 07:01:01;;;;;;;7.13;5.60;;;7.70;82.40;;;;;;4952890;28;20595;-85
2022/04/04 08:39:07;;;;;;;3.33;3.03;;;9.40;65.70;;;;;;4984881;28;20983;-83
2022/04/04 08:42:49;;;;;;;5.83;3.97;;;9.40;64.50;;;;;;4971545;28;20600;-84
2022/04/04 09:29:08;;;;;;;6.30;3.30;;;9.30;60.10;;;;;;803607;26;20755;-83
2022/04/04 09:32:15;;;;;;;3.40;3.00;;;9.40;59.50;;;;;;5003263;28;20869;-84
2022/04/04 09:35:28;;;;;;;2.67;2.40;;;9.10;60.40;;;;;;5040806;28;20452;-84
2022/04/04 09:38:27;;;;;;;3.20;2.90;;;9.80;59.10;;;;;;5018235;28;20781;-83
2022/04/04 09:41:38;;;;;;;3.80;2.70;;;9.60;58.60;;;;;;5022301;28;20493;-85
2022/04/04 09:44:25;;;;;;;3.17;2.37;;;9.30;59.50;;;;;;5015233;28;20568;-83
2022/04/04 09:47:47;;;;;;;;;;;;;;;;;;;;;
2022/04/04 09:50:57;;;;;;;3.30;3.00;;;9.30;60.00;;;;;;5016725;28;21826;-84
2022/04/04 09:54:00;;;;;;;61.80;11.13;;;9.30;59.70;;;;;;5008028;28;20476;-83
2022/04/04 09:56:50;;;;;;;3.90;3.30;;;9.30;60.00;;;;;;5022757;28;20469;-82
2022/04/04 10:00:36;;;;;;;;;;;;;;;;;;;;;
2022/04/04 10:13:05;;;;;;;3.40;3.07;;;9.30;59.60;;;;;;4826271;29;20473;-85
2022/04/04 10:16:32;;;;;;;4.50;3.33;;;9.50;60.50;;;;;;4826613;29;21381;-84
2022/04/04 10:20:40;;;;;;;;;;;;;;;;;;;;;
2022/04/04 10:23:45;;;;;;;4.90;3.80;;;9.30;65.30;;;;;;4991619;28;20511;-84
2022/04/04 10:30:46;;;;;;;4.57;4.10;;;9.10;68.10;;;;;;4979558;28;20471;-83
2022/04/04 10:34:31;;;;;;;4.90;3.97;;;9.00;67.20;;;;;;4878154;28;20490;-84
2022/04/04 10:38:21;;;;;;;4.37;3.97;;;9.00;67.00;;;;;;4988565;28;20498;-83
2022/04/04 10:54:22;;;;;;;5.77;3.60;;;9.30;65.40;;;;;;4936802;29;20534;-82
2022/04/04 11:01:26;;;;;;;5.40;4.03;;;9.20;65.90;;;;;;4748436;30;20586;-83
2022/04/04 11:13:21;;;;;;;3.93;3.30;;;9.10;66.70;;;;;;1227895;26;20473;-84
2022/04/04 11:20:53;;;;;;;2.83;2.63;;;9.10;69.20;;;;;;4959680;28;20571;-83
2022/04/04 11:23:42;;;;;;;4.33;3.30;;;9.10;72.90;;;;;;4953557;28;20469;-83
2022/04/04 11:26:40;;;;;;;5.67;4.10;;;8.90;74.40;;;;;;5009391;28;20477;-83
2022/04/04 11:30:08;;;;;;;3.87;3.53;;;8.80;76.10;;;;;;5012399;28;20462;-86
2022/04/04 11:33:51;;;;;;;4.33;3.37;;;8.90;74.50;;;;;;4999774;28;20446;-83
2022/04/04 11:37:36;;;;;;;3.40;3.10;;;9.00;75.60;;;;;;4985642;28;21774;-85
2022/04/04 11:40:55;;;;;;;6.43;4.30;;;9.30;74.00;;;;;;4968483;28;20486;-84
2022/04/04 11:44:02;;;;;;;4.93;3.80;;;9.10;73.90;;;;;;4998700;28;20476;-84
2022/04/04 11:47:13;;;;;;;4.30;3.97;;;8.90;74.40;;;;;;4964197;28;20478;-84
2022/04/04 11:50:50;;;;;;;;;;;;;;;;;;;;;
2022/04/04 11:54:18;;;;;;;4.20;3.80;;;8.70;78.10;;;;;;4979024;28;20464;-83
2022/04/04 12:01:09;;;;;;;4.73;3.87;;;8.40;81.80;;;;;;4972328;28;20482;-82
2022/04/04 12:04:25;;;;;;;4.17;3.77;;;8.30;83.60;;;;;;4991998;28;20462;-83
2022/04/04 12:07:48;;;;;;;;;;;;;;;;;;;;;
2022/04/04 12:11:35;;;;;;;4.70;4.17;;;8.40;87.50;;;;;;4938040;28;20527;-83
2022/04/04 12:18:44;;;;;;;5.30;4.20;;;8.20;90.20;;;;;;4918475;29;20551;-81
2022/04/04 12:29:27;;;;;;;5.10;4.60;;;8.30;91.20;;;;;;4931074;28;20456;-82
2022/04/04 12:32:26;;;;;;;5.57;4.30;;;8.20;91.30;;;;;;4893678;28;20504;-85
2022/04/04 12:42:46;;;;;;;4.37;3.83;;;8.00;93.90;;;;;;4874524;29;20606;-82
2022/04/04 12:45:47;;;;;;;7.10;4.80;;;8.00;94.20;;;;;;4864218;29;20471;-84
2022/04/04 13:00:35;;;;;;;;;;;;;;;;;;;;;
2022/04/04 13:12:56;;;;;;;4.90;4.40;;;7.70;97.60;;;;;;4765152;29;20467;-82
2022/04/04 13:27:34;;;;;;;6.40;5.80;;;7.70;99.30;;;;;;4947692;28;20654;-83
2022/04/04 13:30:17;;;;;;;6.77;6.17;;;7.90;98.30;;;;;;4936852;28;20735;-83
2022/04/04 13:33:17;;;;;;;6.07;5.57;;;7.90;97.90;;;;;;4942955;28;20493;-85
2022/04/04 13:36:14;;;;;;;6.50;5.90;;;7.80;98.20;;;;;;4929162;29;20504;-85
2022/04/04 13:38:59;;;;;;;6.70;6.10;;;7.90;98.00;;;;;;4986504;28;20507;-84
2022/04/04 13:41:43;;;;;;;6.87;6.17;;;7.80;98.40;;;;;;5017872;28;20491;-85
2022/04/04 13:44:51;;;;;;;9.20;5.87;;;7.90;98.40;;;;;;5031529;28;20453;-86
2022/04/04 13:47:32;;;;;;;8.50;6.63;;;8.00;97.60;;;;;;5017934;28;20478;-82
2022/04/04 13:50:08;;;;;;;6.97;5.40;;;7.90;97.90;;;;;;5014698;28;20470;-84
2022/04/04 13:52:56;;;;;;;8.33;6.90;;;7.80;97.70;;;;;;5014061;28;20442;-83
2022/04/04 13:55:33;;;;;;;7.23;5.83;;;7.70;98.10;;;;;;5009925;28;20454;-85
2022/04/04 13:58:36;;;;;;;7.40;6.30;;;7.80;98.90;;;;;;5000665;28;20462;-83
2022/04/04 14:01:23;;;;;;;6.70;5.90;;;7.60;98.70;;;;;;5002999;28;20478;-84
2022/04/04 14:04:35;;;;;;;6.63;5.57;;;7.90;98.70;;;;;;5005157;28;20556;-83
2022/04/04 14:07:16;;;;;;;7.47;4.83;;;7.90;99.00;;;;;;5004700;28;20520;-83
2022/04/04 14:09:57;;;;;;;5.37;4.93;;;8.10;97.80;;;;;;5005301;28;20896;-86
2022/04/04 14:16:02;;;;;;;7.40;6.70;;;7.80;98.70;;;;;;5006877;28;21878;-83
2022/04/04 14:18:53;;;;;;;6.93;6.23;;;7.80;98.90;;;;;;4998557;28;20468;-87
2022/04/04 14:21:42;;;;;;;6.60;6.00;;;7.90;99.00;;;;;;5004538;28;20994;-84
2022/04/04 14:24:44;;;;;;;6.50;5.87;;;7.90;99.80;;;;;;5006883;28;21373;-86
2022/04/04 14:27:27;;;;;;;6.13;5.53;;;8.00;99.60;;;;;;5023018;28;20697;-84
2022/04/04 14:30:17;;;;;;;7.27;6.67;;;7.90;99.30;;;;;;5003127;28;20470;-85
2022/04/04 14:33:11;;;;;;;6.63;6.03;;;8.20;99.50;;;;;;5016821;28;20466;-85
2022/04/04 14:36:00;;;;;;;6.47;5.97;;;8.30;98.60;;;;;;5010724;28;20494;-86
2022/04/04 14:39:08;;;;;;;;;;;;;;;;;;;;;
2022/04/04 14:42:05;;;;;;;5.60;5.10;;;7.90;99.20;;;;;;5011152;28;20485;-85
2022/04/04 14:45:05;;;;;;;7.30;5.83;;;7.90;99.90;;;;;;5003734;28;20464;-84
2022/04/04 14:52:13;;;;;;;4.77;4.20;;;7.80;99.00;;;;;;4999573;28;20535;-85
2022/04/04 14:55:27;;;;;;;4.10;3.80;;;7.80;99.10;;;;;;5008808;28;21086;-84
2022/04/04 14:58:37;;;;;;;6.50;4.47;;;7.70;99.60;;;;;;5007609;28;20464;-86
2022/04/04 15:02:20;;;;;;;4.30;3.90;;;8.00;99.70;;;;;;5003258;28;21853;-86
2022/04/04 15:05:27;;;;;;;5.87;3.73;;;7.90;99.30;;;;;;4999548;28;20458;-84
2022/04/04 15:08:36;;;;;;;3.97;3.67;;;7.90;99.30;;;;;;5007231;28;20477;-86
2022/04/04 15:11:11;;;;;;;3.30;3.10;;;7.90;99.10;;;;;;5027428;28;20454;-86
2022/04/04 15:14:04;;;;;;;4.30;3.17;;;7.90;99.20;;;;;;5005062;28;20454;-85
2022/04/04 15:17:05;;;;;;;3.60;3.23;;;7.90;98.90;;;;;;5018861;28;20532;-85
2022/04/04 15:20:19;;;;;;;2.70;2.50;;;7.90;98.90;;;;;;4948442;29;20462;-85
2022/04/04 15:23:11;;;;;;;3.50;2.93;;;8.00;99.00;;;;;;4935766;29;20559;-87
2022/04/04 15:26:39;;;;;;;3.00;2.40;;;8.00;98.50;;;;;;4941737;28;20476;-85
2022/04/04 15:29:40;;;;;;;;;;;;;;;;;;;;;
2022/04/04 15:41:54;;;;;;;3.27;2.97;;;7.80;99.90;;;;;;4954683;28;20494;-84
2022/04/04 15:44:34;;;;;;;2.90;2.60;;;7.90;99.90;;;;;;4947841;28;20465;-84
2022/04/04 15:48:08;;;;;;;3.07;2.83;;;8.00;99.80;;;;;;4934967;29;20580;-84
2022/04/04 15:50:54;;;;;;;3.97;2.60;;;8.00;99.90;;;;;;4937183;28;20481;-85
2022/04/04 15:57:00;;;;;;;2.70;2.50;;;7.80;99.90;;;;;;4996814;28;20489;-85
2022/04/04 15:59:49;;;;;;;2.87;2.67;;;7.80;99.90;;;;;;5008219;28;20553;-84
2022/04/04 16:03:01;;;;;;;2.83;2.63;;;7.80;99.90;;;;;;5017536;28;20576;-84
2022/04/04 16:05:55;;;;;;;2.83;2.67;;;7.90;99.90;;;;;;5008394;28;20908;-85
2022/04/04 16:09:04;;;;;;;2.53;2.40;;;7.90;99.90;;;;;;5013965;28;20477;-84
2022/04/04 16:12:14;;;;;;;4.67;4.20;;;7.80;99.90;;;;;;5009825;28;20490;-83
2022/04/04 16:15:00;;;;;;;3.33;2.70;;;7.80;99.90;;;;;;5013504;28;20466;-85
2022/04/04 16:17:44;;;;;;;2.90;2.70;;;7.80;99.90;;;;;;5007248;28;20481;-84
2022/04/04 16:20:37;;;;;;;2.13;2.03;;;8.00;99.90;;;;;;5010732;28;20524;-85
2022/04/04 16:23:14;;;;;;;2.60;2.43;;;7.90;99.90;;;;;;5011762;28;20972;-85
2022/04/04 16:25:58;;;;;;;2.40;2.10;;;7.90;99.90;;;;;;5009051;28;20544;-86
2022/04/04 16:29:18;;;;;;;2.37;2.17;;;8.00;99.90;;;;;;5007902;28;20469;-86
2022/04/04 16:32:50;;;;;;;2.33;2.13;;;8.10;99.90;;;;;;5009216;28;20462;-85
2022/04/04 16:35:36;;;;;;;3.60;2.13;;;8.00;99.90;;;;;;5024068;28;20480;-83
2022/04/04 16:38:27;;;;;;;2.83;2.60;;;8.00;99.90;;;;;;4993321;28;20506;-86
2022/04/04 16:41:33;;;;;;;;;;;;;;;;;;;;;
2022/04/04 16:44:12;;;;;;;2.90;2.53;;;7.90;99.90;;;;;;5008681;28;20489;-85
2022/04/04 16:47:16;;;;;;;2.17;2.03;;;7.90;99.90;;;;;;5005227;28;20572;-85
2022/04/04 16:50:00;;;;;;;2.20;2.10;;;8.20;99.90;;;;;;4955013;28;20463;-84
2022/04/04 16:52:53;;;;;;;2.03;1.83;;;8.00;99.90;;;;;;5008500;28;20466;-85
2022/04/04 16:55:49;;;;;;;2.40;2.20;;;8.00;99.90;;;;;;5010065;28;20493;-85
2022/04/04 16:58:37;;;;;;;2.60;2.40;;;7.90;99.90;;;;;;5007140;28;20466;-83
2022/04/04 17:01:43;;;;;;;3.00;2.70;;;7.90;99.90;;;;;;5006907;28;20477;-84
2022/04/04 17:04:19;;;;;;;2.43;2.30;;;7.90;99.90;;;;;;5005115;28;20463;-86
2022/04/04 17:07:20;;;;;;;2.43;2.30;;;7.90;99.90;;;;;;5007614;28;20486;-84
2022/04/04 17:10:42;;;;;;;2.67;2.47;;;7.90;99.90;;;;;;5006639;28;20578;-86
2022/04/04 17:16:55;;;;;;;2.13;2.03;;;8.00;99.90;;;;;;4946106;28;21018;-85
2022/04/04 17:19:29;;;;;;;2.43;2.23;;;8.00;99.90;;;;;;4944393;28;20469;-84
2022/04/04 17:29:06;;;;;;;2.13;2.03;;;8.00;99.90;;;;;;5128779;22;20496;-84
2022/04/04 17:31:36;;;;;;;2.47;2.27;;;8.10;99.90;;;;;;4998558;28;20485;-86
2022/04/04 17:51:19;;;;;;;2.17;2.00;;;8.10;99.90;;;;;;4965107;28;20490;-85
2022/04/04 18:07:19;;;;;;;2.37;2.27;;;8.00;99.90;;;;;;5011181;22;21031;-84
2022/04/04 18:10:14;;;;;;;2.30;2.10;;;8.10;99.90;;;;;;4966242;28;20463;-86
2022/04/04 18:13:09;;;;;;;2.50;2.30;;;8.10;99.90;;;;;;4981358;28;20562;-85
2022/04/04 18:15:37;;;;;;;2.30;2.10;;;8.10;99.90;;;;;;4983053;28;21292;-85
2022/04/04 18:18:37;;;;;;;2.37;2.27;;;8.10;99.90;;;;;;4991605;28;20480;-84
2022/04/04 18:21:44;;;;;;;2.00;1.90;;;8.10;99.90;;;;;;4966490;28;20451;-85
2022/04/04 18:24:38;;;;;;;2.53;2.33;;;8.00;99.90;;;;;;4977037;28;20478;-83
2022/04/04 18:27:31;;;;;;;2.63;2.43;;;8.10;99.90;;;;;;4880702;29;20480;-83
2022/04/04 18:30:12;;;;;;;2.80;2.60;;;8.10;99.90;;;;;;4892293;29;20469;-82
2022/04/04 18:33:11;;;;;;;2.90;2.70;;;8.00;99.90;;;;;;4898454;29;20469;-83
2022/04/04 18:35:51;;;;;;;3.07;2.17;;;8.10;99.90;;;;;;4895167;29;20517;-84
2022/04/04 18:38:29;;;;;;;2.67;2.20;;;8.00;99.90;;;;;;4895394;29;20498;-84
2022/04/04 18:41:04;;;;;;;2.80;2.60;;;8.10;99.90;;;;;;4901324;29;20521;-82
2022/04/04 18:43:43;;;;;;;2.70;2.50;;;8.00;99.90;;;;;;4890627;29;20486;-82
2022/04/04 18:46:19;;;;;;;2.33;2.13;;;8.00;99.90;;;;;;4885391;29;21042;-83
2022/04/04 18:49:07;;;;;;;2.77;2.50;;;8.00;99.90;;;;;;4879931;29;20540;-83
2022/04/04 18:51:53;;;;;;;2.20;2.00;;;8.10;99.90;;;;;;4894752;29;20505;-85
2022/04/04 20:40:16;;;;;;;;;;;;;;;;;;;;;
2022/04/04 20:43:47;;;;;;;1.67;1.57;;;8.50;99.90;;;;;;4863470;29;20490;-82
2022/04/04 20:47:07;;;;;;;2.03;1.90;;;8.60;99.90;;;;;;4856387;29;20525;-83
2022/04/04 20:49:56;;;;;;;;;;;;;;;;;;;;;
2022/04/04 20:52:57;;;;;;;1.93;1.83;;;8.60;99.90;;;;;;4843628;29;20466;-83
2022/04/04 21:00:35;;;;;;;1.90;1.80;;;8.50;99.90;;;;;;4802734;29;20517;-81
2022/04/04 21:04:17;;;;;;;1.87;1.70;;;8.50;99.90;;;;;;4833031;29;20494;-82
2022/04/04 21:07:08;;;;;;;1.70;1.60;;;8.50;99.90;;;;;;4832519;29;20493;-84
2022/04/04 21:10:01;;;;;;;1.60;1.50;;;8.60;99.90;;;;;;4818786;29;20569;-84
2022/04/04 21:12:52;;;;;;;2.50;1.50;;;8.60;99.90;;;;;;4817291;29;20462;-82
2022/04/04 21:18:51;;;;;;;1.70;1.60;;;8.70;99.90;;;;;;4863847;29;20470;-84
2022/04/04 21:22:08;;;;;;;2.03;1.43;;;8.70;99.90;;;;;;4887988;29;20820;-83
2022/04/04 21:25:00;;;;;;;2.10;1.77;;;8.70;99.90;;;;;;4883260;29;20478;-85
2022/04/04 21:27:50;;;;;;;1.50;1.40;;;8.70;99.90;;;;;;4894308;29;20487;-84
2022/04/04 21:31:01;;;;;;;2.03;1.93;;;8.70;99.90;;;;;;4900866;29;20446;-83
2022/04/04 21:34:16;;;;;;;;;;;;;;;;;;;;;
2022/04/04 21:37:45;;;;;;;1.50;1.40;;;8.80;99.90;;;;;;4876957;29;20486;-82
2022/04/04 21:41:12;;;;;;;1.60;1.50;;;8.80;99.90;;;;;;4886318;29;20618;-81
2022/04/04 21:44:33;;;;;;;3.00;1.90;;;8.90;99.90;;;;;;4887172;29;20531;-84
2022/04/04 21:47:57;;;;;;;;;;;;;;;;;;;;;
2022/04/04 21:51:17;;;;;;;1.50;1.40;;;9.00;99.90;;;;;;4895429;29;20456;-83
2022/04/04 21:54:57;;;;;;;1.60;1.50;;;8.90;99.90;;;;;;4891207;29;20439;-85
2022/04/04 21:58:12;;;;;;;2.00;1.90;;;8.90;99.90;;;;;;4852675;29;20492;-83
2022/04/04 22:01:57;;;;;;;1.80;1.70;;;8.90;99.90;;;;;;4871773;29;20476;-85
2022/04/04 22:08:41;;;;;;;2.13;1.97;;;9.10;99.90;;;;;;4038820;27;20574;-84
2022/04/04 22:11:52;;;;;;;2.17;2.07;;;9.20;99.90;;;;;;4895588;29;20470;-84
2022/04/04 22:15:12;;;;;;;1.50;1.40;;;9.20;99.90;;;;;;4912433;29;20458;-82
2022/04/04 22:20:48;;;;;;;1.50;1.40;;;9.10;99.90;;;;;;5331989;23;20512;-79
2022/04/04 22:23:44;;;;;;;1.57;1.47;;;9.20;99.90;;;;;;4894941;29;20475;-85
2022/04/04 22:29:34;;;;;;;;;;;;;;;;;;;;;
2022/04/04 22:52:17;;;;;;;1.80;1.60;;;9.10;99.90;;;;;;4896989;29;20548;-83
2022/04/04 23:03:25;;;;;;;;;;;;;;;;;;;;;
2022/04/04 23:09:15;;;;;;;1.60;1.50;;;9.00;99.90;;;;;;5024446;23;20529;-82
2022/04/04 23:12:33;;;;;;;2.17;2.00;;;9.00;99.90;;;;;;4927810;29;20497;-83
2022/04/04 23:15:35;;;;;;;1.70;1.60;;;9.10;99.90;;;;;;4910936;29;20474;-83
2022/04/04 23:21:31;;;;;;;1.67;1.57;;;9.10;99.90;;;;;;4908938;29;20466;-84
2022/04/04 23:24:26;;;;;;;1.50;1.40;;;9.10;99.90;;;;;;4906281;29;20582;-82
2022/04/04 23:34:57;;;;;;;;;;;;;;;;;;;;;
2022/04/04 23:41:45;;;;;;;2.27;2.17;;;9.30;99.90;;;;;;4911639;29;20479;-85
2022/04/04 23:54:40;;;;;;;3.13;2.73;;;9.20;99.90;;;;;;792093;27;20734;-83
2022/04/04 23:58:16;;;;;;;3.47;3.17;;;9.20;99.90;;;;;;4832929;29;20485;-82
